Time;durP1;ratioP1;P1;durP2;ratioP2;P2;SDS_P1;SDS_P2;PMS_P1;PMS_P2;Temp;Humidity;BMP_temperature;BMP_pressure;BME280_temperature;BME280_humidity;BME280_pressure;Samples;Min_cycle;Max_cycle;Signal;HPM_P1;HPM_P2
2022/07/11 00:00:12;;;;;;;6.03;2.35;;;;;;;16.95;75.94;102271.44;5116302;27;20132;-71
2022/07/11 00:02:39;;;;;;;8.63;2.42;;;;;;;16.99;75.64;102280.22;5108592;28;20113;-71
2022/07/11 00:05:10;;;;;;;5.57;2.30;;;;;;;17.02;75.26;102273.00;5111050;28;20040;-73
2022/07/11 00:07:37;;;;;;;6.25;2.50;;;;;;;17.07;75.61;102275.50;5111472;27;20127;-73
2022/07/11 00:10:07;;;;;;;4.72;2.05;;;;;;;17.11;75.51;102271.78;5112661;27;20071;-71
2022/07/11 00:12:35;;;;;;;7.03;1.92;;;;;;;17.13;75.08;102272.59;5104645;27;20041;-73
2022/07/11 00:15:03;;;;;;;6.78;1.92;;;;;;;17.17;75.10;102273.34;5111146;27;20060;-73
2022/07/11 00:17:30;;;;;;;5.95;1.85;;;;;;;17.21;74.98;102277.66;5112342;27;20129;-71
2022/07/11 00:19:58;;;;;;;7.30;2.00;;;;;;;17.25;74.85;102270.44;5111831;27;20044;-73
2022/07/11 00:22:25;;;;;;;6.97;1.70;;;;;;;17.29;74.80;102269.41;5104094;27;20134;-71
2022/07/11 00:24:52;;;;;;;6.68;1.80;;;;;;;17.32;74.65;102272.81;5111977;27;20036;-72
2022/07/11 00:27:19;;;;;;;4.63;1.83;;;;;;;17.36;74.66;102263.78;5111897;27;20052;-72
2022/07/11 00:29:46;;;;;;;6.03;2.00;;;;;;;17.37;74.58;102259.34;5111569;27;20036;-72
2022/07/11 00:32:13;;;;;;;7.47;2.30;;;;;;;17.40;74.64;102261.88;5111318;27;20505;-72
2022/07/11 00:34:40;;;;;;;9.45;2.03;;;;;;;17.41;74.58;102258.28;5111202;27;20044;-70
2022/07/11 00:37:08;;;;;;;4.00;2.03;;;;;;;17.42;74.68;102252.03;5111317;27;20090;-70
2022/07/11 00:39:35;;;;;;;5.95;1.80;;;;;;;17.44;74.57;102250.19;5110418;28;20072;-71
2022/07/11 00:42:02;;;;;;;5.55;1.88;;;;;;;17.44;74.40;102260.84;5128045;27;20136;-70
2022/07/11 00:44:29;;;;;;;5.05;1.60;;;;;;;17.44;74.21;102259.97;5124396;27;20132;-70
2022/07/11 00:46:56;;;;;;;5.63;1.65;;;;;;;17.42;74.25;102254.69;5120691;27;20481;-70
2022/07/11 00:49:24;;;;;;;6.55;1.40;;;;;;;17.42;74.39;102257.34;5110960;27;20075;-70
2022/07/11 00:51:51;;;;;;;3.30;1.52;;;;;;;17.43;74.35;102258.25;5111835;27;20522;-70
2022/07/11 00:54:22;;;;;;;4.10;1.58;;;;;;;17.42;74.25;102260.00;5116999;27;20040;-70
2022/07/11 00:56:50;;;;;;;5.00;1.50;;;;;;;17.43;74.06;102259.09;5111342;27;20043;-70
2022/07/11 00:59:19;;;;;;;8.40;1.60;;;;;;;17.42;74.00;102259.16;5116593;27;20123;-71
2022/07/11 01:01:46;;;;;;;5.22;1.27;;;;;;;17.44;74.11;102254.66;5114040;27;20039;-70
2022/07/11 01:04:13;;;;;;;3.58;1.52;;;;;;;17.44;74.05;102260.84;5111421;27;20076;-70
2022/07/11 01:06:41;;;;;;;4.78;1.70;;;;;;;17.45;74.06;102256.38;5112473;27;20044;-70
2022/07/11 01:09:09;;;;;;;6.28;1.73;;;;;;;17.47;74.04;102249.19;5115031;27;20106;-69
2022/07/11 01:11:36;;;;;;;5.63;1.60;;;;;;;17.48;74.06;102245.59;5112075;27;20526;-69
2022/07/11 01:14:03;;;;;;;3.67;1.45;;;;;;;17.52;73.92;102253.41;5116911;27;20040;-71
2022/07/11 01:16:30;;;;;;;4.93;1.70;;;;;;;17.53;73.77;102247.16;5109280;27;20138;-70
2022/07/11 01:18:58;;;;;;;2.35;1.20;;;;;;;17.54;74.36;102246.25;5111408;27;20801;-70
2022/07/11 01:21:38;;;;;;;4.78;1.35;;;;;;;17.53;73.93;102244.50;5110316;27;20044;-70
2022/07/11 01:24:08;;;;;;;3.92;1.45;;;;;;;17.52;73.87;102242.75;5116488;27;20510;-70
2022/07/11 01:26:36;;;;;;;3.83;1.33;;;;;;;17.52;73.94;102242.75;5115565;27;20045;-70
2022/07/11 01:29:09;;;;;;;4.82;1.65;;;;;;;17.53;73.67;102243.63;5113786;27;20036;-70
2022/07/11 01:31:42;;;;;;;6.93;1.50;;;;;;;17.53;73.91;102246.31;5108219;27;20040;-71
2022/07/11 01:34:11;;;;;;;5.38;1.25;;;;;;;17.55;73.99;102241.75;5107229;27;20032;-71
2022/07/11 01:36:42;;;;;;;3.83;1.27;;;;;;;17.56;73.89;102245.31;5122147;27;20067;-71
2022/07/11 01:39:09;;;;;;;3.75;1.20;;;;;;;17.52;73.92;102236.56;5113071;27;20590;-71
2022/07/11 01:41:37;;;;;;;4.60;1.30;;;;;;;17.49;73.91;102237.56;5113112;27;20133;-71
2022/07/11 01:44:04;;;;;;;3.35;1.20;;;;;;;17.47;73.66;102243.84;5124280;27;20043;-70
2022/07/11 01:46:31;;;;;;;2.80;1.00;;;;;;;17.45;74.02;102235.06;5114043;27;20044;-70
2022/07/11 01:48:58;;;;;;;2.20;0.80;;;;;;;17.47;73.48;102241.19;5109123;27;20036;-70
2022/07/11 01:51:27;;;;;;;1.83;0.85;;;;;;;17.49;73.36;102237.56;5112848;27;20089;-70
2022/07/11 01:53:55;;;;;;;4.13;1.20;;;;;;;17.44;73.07;102242.19;5115132;27;20520;-71
2022/07/11 01:56:23;;;;;;;7.55;1.30;;;;;;;17.43;73.54;102244.91;5114269;27;20043;-71
2022/07/11 01:58:59;;;;;;;3.60;1.10;;;;;;;17.44;73.69;102247.50;5116243;27;20040;-72
2022/07/11 02:01:27;;;;;;;5.57;1.50;;;;;;;17.46;73.62;102245.66;5113266;27;20048;-71
2022/07/11 02:03:55;;;;;;;1.98;1.20;;;;;;;17.49;73.94;102253.56;5113471;28;20067;-71
2022/07/11 02:06:22;;;;;;;4.80;1.10;;;;;;;17.49;73.90;102253.56;5113565;27;20134;-71
2022/07/11 02:08:49;;;;;;;4.30;1.50;;;;;;;17.48;73.79;102246.47;5115131;27;20094;-71
2022/07/11 02:11:16;;;;;;;4.65;1.20;;;;;;;17.46;74.09;102244.78;5115676;27;20048;-71
2022/07/11 02:13:43;;;;;;;3.47;1.13;;;;;;;17.46;73.83;102243.00;5088505;28;20043;-71
2022/07/11 02:16:11;;;;;;;4.32;1.27;;;;;;;17.47;74.01;102247.41;5114016;27;20052;-71
2022/07/11 02:18:38;;;;;;;5.63;1.25;;;;;;;17.49;73.76;102250.88;5112731;28;20121;-71
2022/07/11 02:21:06;;;;;;;3.92;1.20;;;;;;;17.47;73.89;102243.84;5114894;27;20127;-70
2022/07/11 02:23:33;;;;;;;2.83;1.00;;;;;;;17.47;73.73;102246.50;5115871;27;20040;-71
2022/07/11 02:26:00;;;;;;;3.17;1.10;;;;;;;17.45;73.75;102248.41;5133382;27;20050;-71
2022/07/11 02:28:27;;;;;;;7.25;1.40;;;;;;;17.47;73.78;102242.06;5132914;27;20806;-71
2022/07/11 02:30:54;;;;;;;3.78;1.13;;;;;;;17.49;73.76;102239.34;5133264;27;20036;-71
2022/07/11 02:33:22;;;;;;;2.10;0.90;;;;;;;17.47;73.90;102249.19;5128490;27;20056;-72
2022/07/11 02:35:50;;;;;;;4.18;1.10;;;;;;;17.49;74.09;102253.56;5121808;27;20056;-72
2022/07/11 02:38:17;;;;;;;1.80;0.90;;;;;;;17.48;74.22;102243.81;5119903;27;20117;-72
2022/07/11 02:40:45;;;;;;;3.58;1.30;;;;;;;17.47;74.42;102242.06;5115271;27;20067;-71
2022/07/11 02:43:13;;;;;;;5.47;1.40;;;;;;;17.49;74.54;102245.56;5114509;27;20858;-69
2022/07/11 02:45:41;;;;;;;2.25;1.00;;;;;;;17.49;74.47;102247.34;5114497;27;20102;-69
2022/07/11 02:48:08;;;;;;;7.13;1.20;;;;;;;17.49;74.53;102242.88;5107920;27;20044;-70
2022/07/11 02:50:35;;;;;;;3.03;1.20;;;;;;;17.46;74.58;102247.44;5117833;27;20040;-70
2022/07/11 02:53:02;;;;;;;3.65;1.30;;;;;;;17.42;74.55;102235.16;5116536;27;20097;-70
2022/07/11 02:55:30;;;;;;;4.00;1.30;;;;;;;17.39;74.77;102230.84;5113122;27;20151;-70
2022/07/11 02:57:58;;;;;;;4.80;1.10;;;;;;;17.39;74.77;102238.81;5115098;27;20579;-70
2022/07/11 03:00:25;;;;;;;3.20;1.20;;;;;;;17.36;74.82;102234.47;5123438;27;20121;-69
2022/07/11 03:02:53;;;;;;;6.40;1.30;;;;;;;17.37;74.94;102240.66;5111290;27;20044;-71
2022/07/11 03:05:20;;;;;;;5.32;1.48;;;;;;;17.41;74.91;102242.28;5119639;27;20461;-70
2022/07/11 03:07:47;;;;;;;3.95;1.10;;;;;;;17.41;74.63;102238.75;5113447;27;20525;-70
2022/07/11 03:10:15;;;;;;;2.50;1.00;;;;;;;17.39;74.67;102241.50;5111912;27;20554;-70
2022/07/11 03:12:43;;;;;;;2.13;0.80;;;;;;;17.39;74.73;102237.00;5112473;27;20079;-70
2022/07/11 03:15:11;;;;;;;3.35;1.00;;;;;;;17.37;74.68;102251.34;5111892;27;20056;-70
2022/07/11 03:17:38;;;;;;;1.45;0.77;;;;;;;17.34;74.70;102236.34;5119802;27;20598;-70
2022/07/11 03:20:07;;;;;;;2.85;0.90;;;;;;;17.36;74.35;102241.59;5109848;27;20056;-71
2022/07/11 03:22:34;;;;;;;2.28;0.90;;;;;;;17.34;74.45;102246.09;5124067;27;20044;-69
2022/07/11 03:25:05;;;;;;;2.75;0.90;;;;;;;17.32;74.59;102242.63;5107306;27;20044;-70
2022/07/11 03:27:34;;;;;;;1.80;0.80;;;;;;;17.32;74.51;102242.63;5127128;27;20055;-70
2022/07/11 03:30:03;;;;;;;1.95;0.80;;;;;;;17.31;74.61;102241.75;5107028;27;20181;-69
2022/07/11 03:32:30;;;;;;;2.53;1.00;;;;;;;17.34;74.49;102248.78;5118692;27;20535;-70
2022/07/11 03:37:44;;;;;;;3.72;1.00;;;;;;;17.38;74.67;102253.94;5128455;27;20047;-71
2022/07/11 03:40:11;;;;;;;6.15;1.35;;;;;;;17.38;74.67;102253.94;5129924;27;20128;-70
2022/07/11 03:42:38;;;;;;;5.70;1.20;;;;;;;17.40;74.71;102256.53;5123330;27;20032;-70
2022/07/11 03:45:07;;;;;;;5.55;1.00;;;;;;;17.39;74.65;102262.81;5114697;27;20494;-69
2022/07/11 03:47:36;;;;;;;4.25;1.00;;;;;;;17.39;74.58;102260.16;5120936;27;20082;-70
2022/07/11 03:50:04;;;;;;;2.25;0.90;;;;;;;17.39;74.39;102250.34;5115539;27;20075;-71
2022/07/11 03:52:32;;;;;;;6.40;1.02;;;;;;;17.36;74.68;102253.13;5111542;27;20067;-71
2022/07/11 03:54:59;;;;;;;3.38;1.30;;;;;;;17.35;74.62;102251.38;5111674;27;20062;-71
2022/07/11 03:57:26;;;;;;;2.58;1.08;;;;;;;17.35;74.80;102253.19;5115013;27;20040;-71
2022/07/11 03:59:53;;;;;;;3.05;1.02;;;;;;;17.36;74.90;102258.44;5112803;27;20040;-71
2022/07/11 04:02:20;;;;;;;3.22;0.90;;;;;;;17.37;74.85;102248.66;5112907;27;20115;-71
2022/07/11 04:04:47;;;;;;;2.47;1.38;;;;;;;17.39;74.92;102249.50;5112583;27;20536;-71
2022/07/11 04:07:15;;;;;;;4.38;1.15;;;;;;;17.41;74.87;102249.41;5112216;27;20901;-71
2022/07/11 04:09:42;;;;;;;7.85;1.27;;;;;;;17.38;74.91;102251.25;5105069;27;20040;-70
2022/07/11 04:12:09;;;;;;;7.18;1.25;;;;;;;17.41;74.86;102254.75;5112399;27;20087;-71
2022/07/11 04:14:36;;;;;;;5.63;1.05;;;;;;;17.37;75.02;102257.53;5111306;27;20508;-71
2022/07/11 04:17:04;;;;;;;8.65;1.60;;;;;;;17.40;74.97;102253.88;5071076;28;20045;-71
2022/07/11 04:19:31;;;;;;;6.15;2.03;;;;;;;17.42;75.03;102259.16;5073714;28;20538;-71
2022/07/11 04:21:59;;;;;;;5.35;2.50;;;;;;;17.42;75.27;102257.34;5071463;28;20091;-71
2022/07/11 04:24:26;;;;;;;5.55;2.90;;;;;;;17.39;75.38;102253.00;5071977;28;20103;-71
2022/07/11 04:26:53;;;;;;;6.10;3.53;;;;;;;17.37;75.72;102265.50;5070423;28;20072;-71
2022/07/11 04:29:20;;;;;;;6.80;3.92;;;;;;;17.34;75.79;102256.75;5072749;28;20045;-71
2022/07/11 04:31:47;;;;;;;6.43;3.97;;;;;;;17.31;75.97;102257.75;5071943;28;20090;-72
2022/07/11 04:34:14;;;;;;;15.80;4.53;;;;;;;17.31;76.24;102268.41;5070680;28;20508;-71
2022/07/11 04:36:42;;;;;;;15.68;5.10;;;;;;;17.32;76.60;102256.84;5070395;28;20812;-69
2022/07/11 04:39:12;;;;;;;10.57;5.40;;;;;;;17.32;76.58;102269.28;5074353;28;20119;-70
2022/07/11 04:41:40;;;;;;;9.63;5.18;;;;;;;17.30;76.66;102266.69;5073197;28;20037;-68
2022/07/11 04:44:07;;;;;;;8.25;4.60;;;;;;;17.25;76.85;102260.63;5070438;28;20049;-70
2022/07/11 04:46:34;;;;;;;10.05;4.85;;;;;;;17.25;76.85;102271.28;5069381;28;20037;-71
2022/07/11 04:49:01;;;;;;;10.10;4.65;;;;;;;17.23;76.92;102279.34;5071573;28;20052;-70
2022/07/11 04:51:28;;;;;;;17.45;4.82;;;;;;;17.26;77.10;102278.34;5088630;28;20045;-71
2022/07/11 04:53:56;;;;;;;6.63;3.22;;;;;;;17.28;77.45;102273.00;5081113;28;20041;-71
2022/07/11 04:56:23;;;;;;;3.65;1.58;;;;;;;17.29;76.82;102278.25;5070703;28;20052;-70
2022/07/11 04:58:51;;;;;;;2.47;1.15;;;;;;;17.31;76.36;102286.19;5080758;28;20053;-70
2022/07/11 05:01:18;;;;;;;4.88;1.20;;;;;;;17.23;76.56;102282.00;5071278;28;20061;-71
2022/07/11 05:03:47;;;;;;;4.80;1.45;;;;;;;17.10;77.21;102280.69;5075592;28;20051;-70
2022/07/11 05:06:14;;;;;;;3.60;1.27;;;;;;;17.06;77.50;102281.75;5075224;28;20041;-71
2022/07/11 05:08:41;;;;;;;5.13;1.27;;;;;;;17.06;77.49;102281.75;5077396;28;20114;-70
2022/07/11 05:11:08;;;;;;;3.70;1.58;;;;;;;16.98;77.75;102290.00;5076846;28;20520;-70
2022/07/11 05:13:37;;;;;;;3.28;1.40;;;;;;;16.88;78.12;102297.41;5069831;28;20126;-71
2022/07/11 05:16:05;;;;;;;4.57;1.40;;;;;;;16.81;78.59;102293.19;5098425;27;20058;-71
2022/07/11 05:18:33;;;;;;;3.97;1.75;;;;;;;16.76;78.88;102290.69;5119444;27;20045;-72
2022/07/11 05:21:00;;;;;;;3.08;1.70;;;;;;;16.72;79.26;102294.38;5112143;27;20070;-70
2022/07/11 05:23:27;;;;;;;2.97;1.70;;;;;;;16.70;79.60;102298.88;5111013;27;20119;-70
2022/07/11 05:25:54;;;;;;;4.53;2.00;;;;;;;16.65;80.02;102303.47;5117769;27;20036;-70
2022/07/11 05:28:21;;;;;;;5.95;2.03;;;;;;;16.55;80.68;102304.69;5109286;27;20040;-71
2022/07/11 05:30:48;;;;;;;4.65;2.53;;;;;;;16.48;81.09;102305.81;5108711;27;20080;-71
2022/07/11 05:33:18;;;;;;;4.88;2.22;;;;;;;16.38;81.39;102306.13;5115349;27;20817;-70
2022/07/11 05:35:45;;;;;;;3.65;2.60;;;;;;;16.41;81.89;102297.16;5111065;27;20610;-69
2022/07/11 05:38:12;;;;;;;5.30;2.92;;;;;;;16.39;81.92;102310.53;5101435;28;20055;-71
2022/07/11 05:40:40;;;;;;;4.25;1.95;;;;;;;16.35;82.06;102311.53;5108758;27;20549;-70
2022/07/11 05:43:07;;;;;;;3.83;2.78;;;;;;;16.36;82.49;102321.25;5104054;27;20632;-70
2022/07/11 05:45:35;;;;;;;4.55;2.30;;;;;;;16.31;82.73;102323.19;5113071;27;20121;-71
2022/07/11 05:48:02;;;;;;;4.97;2.17;;;;;;;16.40;82.82;102314.94;5109378;27;20543;-70
2022/07/11 05:50:29;;;;;;;4.80;2.03;;;;;;;16.37;82.84;102316.81;5107091;27;20407;-69
2022/07/11 05:52:57;;;;;;;3.83;2.30;;;;;;;16.42;83.28;102317.53;5100944;27;20126;-69
2022/07/11 05:55:24;;;;;;;7.13;1.80;;;;;;;16.38;83.42;102324.75;5105014;27;20046;-71
2022/07/11 05:57:51;;;;;;;3.42;2.15;;;;;;;16.39;83.30;102323.81;5110540;27;20116;-71
2022/07/11 06:00:22;;;;;;;7.93;2.10;;;;;;;16.43;83.53;102316.63;5111526;27;20036;-71
2022/07/11 06:02:49;;;;;;;5.10;2.20;;;;;;;16.45;82.75;102315.63;5112164;27;20515;-71
2022/07/11 06:05:17;;;;;;;3.28;2.08;;;;;;;16.46;82.74;102320.03;5114586;27;20085;-71
2022/07/11 06:10:32;;;;;;;4.80;1.60;;;;;;;16.61;83.07;102325.81;5115616;27;20056;-71
2022/07/11 06:12:59;;;;;;;4.35;2.50;;;;;;;16.69;82.50;102326.44;5115829;27;20083;-70
2022/07/11 06:15:26;;;;;;;2.95;1.60;;;;;;;16.74;82.36;102321.81;5119452;27;20110;-71
2022/07/11 06:17:53;;;;;;;3.47;2.10;;;;;;;16.82;82.09;102324.22;5122176;27;20497;-69
2022/07/11 06:20:20;;;;;;;2.35;1.98;;;;;;;16.85;82.25;102331.22;5127494;27;20051;-69
2022/07/11 06:22:47;;;;;;;3.50;1.65;;;;;;;16.86;81.94;102325.88;5126245;27;20085;-69
2022/07/11 06:25:15;;;;;;;1.60;1.50;;;;;;;16.82;81.90;102329.56;5116655;27;20036;-69
2022/07/11 06:27:43;;;;;;;4.43;2.00;;;;;;;16.84;81.90;102333.03;5129281;27;20205;-70
2022/07/11 06:30:18;;;;;;;2.38;1.73;;;;;;;16.90;82.21;102340.81;5113523;27;20066;-70
2022/07/11 06:32:46;;;;;;;3.92;1.88;;;;;;;16.97;82.39;102333.53;5122786;27;20056;-69
2022/07/11 06:35:13;;;;;;;12.40;2.25;;;;;;;17.07;82.11;102340.28;5114916;27;20048;-70
2022/07/11 06:37:41;;;;;;;4.53;1.88;;;;;;;17.18;81.94;102333.72;5114286;27;20036;-71
2022/07/11 06:40:11;;;;;;;3.30;1.88;;;;;;;17.28;81.53;102336.94;5115040;27;20067;-70
2022/07/11 06:42:38;;;;;;;3.90;2.03;;;;;;;17.42;81.16;102326.66;5096364;28;20048;-70
2022/07/11 06:45:07;;;;;;;4.22;1.80;;;;;;;17.58;80.06;102331.44;5114227;27;20036;-70
2022/07/11 06:47:35;;;;;;;3.78;1.52;;;;;;;17.65;79.73;102336.47;5119961;27;20520;-70
2022/07/11 06:50:03;;;;;;;4.05;1.77;;;;;;;17.74;79.74;102329.09;5120859;27;20040;-71
2022/07/11 06:52:30;;;;;;;2.25;1.70;;;;;;;17.85;79.68;102330.44;5107006;27;20040;-71
2022/07/11 06:54:58;;;;;;;3.33;1.33;;;;;;;17.89;79.19;102323.19;5123289;27;20060;-71
2022/07/11 06:57:25;;;;;;;5.47;1.90;;;;;;;17.92;79.20;102324.84;5114818;27;20158;-71
2022/07/11 06:59:52;;;;;;;6.78;2.30;;;;;;;17.95;79.14;102317.63;5118962;27;20043;-71
2022/07/11 07:02:30;;;;;;;11.68;2.60;;;;;;;18.02;79.05;102315.59;5124584;27;20067;-69
2022/07/11 07:04:58;;;;;;;4.95;2.05;;;;;;;18.08;78.81;102309.16;5123215;27;20040;-69
2022/07/11 07:07:26;;;;;;;2.97;1.60;;;;;;;18.11;78.50;102317.91;5114888;27;20074;-71
2022/07/11 07:09:54;;;;;;;1.80;1.52;;;;;;;18.09;78.33;102317.13;5120007;27;20562;-70
2022/07/11 07:12:21;;;;;;;6.07;2.10;;;;;;;18.03;77.87;102325.34;5116586;27;20044;-71
2022/07/11 07:14:50;;;;;;;3.90;1.92;;;;;;;17.94;78.17;102315.00;5118405;27;20102;-70
2022/07/11 07:17:17;;;;;;;4.80;1.90;;;;;;;17.90;77.91;102322.25;5129358;27;20096;-69
2022/07/11 07:19:44;;;;;;;3.88;1.67;;;;;;;17.82;77.92;102319.88;5130963;27;20036;-70
2022/07/11 07:22:16;;;;;;;2.58;1.80;;;;;;;17.75;78.16;102321.03;5113613;27;20048;-70
2022/07/11 07:24:43;;;;;;;1.90;1.60;;;;;;;17.72;78.63;102317.59;5112676;27;20265;-70
2022/07/11 07:27:13;;;;;;;3.40;2.10;;;;;;;17.68;79.01;102322.19;5121148;27;20051;-71
2022/07/11 07:29:49;;;;;;;6.90;2.08;;;;;;;17.72;79.16;102322.94;5117562;27;20051;-70
2022/07/11 07:32:16;;;;;;;2.53;1.88;;;;;;;17.77;78.95;102321.84;5134999;27;20391;-71
2022/07/11 07:34:44;;;;;;;18.90;2.97;;;;;;;17.86;79.01;102312.59;5116554;27;20680;-71
2022/07/11 07:37:11;;;;;;;18.10;2.95;;;;;;;17.95;78.65;102306.06;5118823;27;20047;-69
2022/07/11 07:39:38;;;;;;;24.90;3.13;;;;;;;18.05;78.80;102298.63;5133829;27;20043;-70
2022/07/11 07:42:08;;;;;;;5.13;2.35;;;;;;;18.16;78.37;102297.25;5134613;27;20775;-70
2022/07/11 07:44:35;;;;;;;9.75;2.47;;;;;;;18.19;78.03;102306.94;5113614;27;20507;-71
2022/07/11 07:47:03;;;;;;;4.88;2.08;;;;;;;18.30;77.98;102311.88;5109344;27;20921;-71
2022/07/11 07:49:30;;;;;;;6.00;1.92;;;;;;;18.40;77.99;102307.91;5110392;27;20048;-72
2022/07/11 07:51:57;;;;;;;2.17;1.92;;;;;;;18.47;77.48;102311.19;5131924;27;20082;-69
2022/07/11 07:54:24;;;;;;;2.85;1.73;;;;;;;18.48;77.00;102312.91;5119008;27;20055;-70
2022/07/11 07:56:52;;;;;;;4.65;1.60;;;;;;;18.51;77.34;102317.28;5114758;27;20044;-69
2022/07/11 07:59:19;;;;;;;5.57;2.20;;;;;;;18.57;77.21;102317.88;5127280;27;20091;-70
2022/07/11 08:01:47;;;;;;;2.42;1.80;;;;;;;18.63;76.65;102319.44;5117282;27;20044;-70
2022/07/11 08:04:15;;;;;;;6.15;1.77;;;;;;;18.65;76.34;102322.91;5123166;27;20123;-70
2022/07/11 08:06:43;;;;;;;3.28;2.00;;;;;;;18.61;76.19;102332.84;5120104;27;20047;-69
2022/07/11 08:09:10;;;;;;;9.20;2.42;;;;;;;18.59;76.37;102325.84;5109750;27;20100;-70
2022/07/11 08:11:37;;;;;;;11.55;2.45;;;;;;;18.54;76.21;102328.72;5137533;27;20067;-69
2022/07/11 08:14:07;;;;;;;10.30;2.40;;;;;;;18.50;77.20;102329.75;5130545;27;20036;-69
2022/07/11 08:16:35;;;;;;;3.08;1.55;;;;;;;18.57;76.91;102335.72;5134544;27;20052;-70
2022/07/11 08:19:05;;;;;;;2.35;1.80;;;;;;;18.65;76.36;102332.75;5118401;27;20040;-70
2022/07/11 08:21:33;;;;;;;2.88;1.70;;;;;;;18.75;76.28;102334.09;5111315;27;20040;-68
2022/07/11 08:24:02;;;;;;;2.30;1.88;;;;;;;18.81;76.39;102347.19;5122792;27;20101;-70
2022/07/11 08:26:30;;;;;;;5.60;1.88;;;;;;;18.79;76.19;102346.38;5125679;27;20083;-72
2022/07/11 08:29:04;;;;;;;6.10;2.15;;;;;;;18.79;76.11;102343.72;5109871;27;20044;-70
2022/07/11 08:31:32;;;;;;;11.80;2.33;;;;;;;18.83;76.18;102344.44;5109824;27;20466;-70
2022/07/11 08:34:02;;;;;;;2.63;1.50;;;;;;;18.91;76.03;102355.72;5115625;27;20036;-70
2022/07/11 08:36:30;;;;;;;2.70;1.70;;;;;;;18.97;75.77;102346.59;5129328;27;20043;-70
2022/07/11 08:38:58;;;;;;;2.55;1.90;;;;;;;19.11;75.68;102338.00;5124109;27;20040;-71
2022/07/11 08:41:26;;;;;;;2.15;1.65;;;;;;;19.27;75.12;102338.22;5116965;27;20040;-70
2022/07/11 08:43:54;;;;;;;1.65;1.42;;;;;;;19.34;74.91;102335.19;5117301;27;20040;-70
2022/07/11 08:46:21;;;;;;;11.05;1.92;;;;;;;19.34;74.58;102340.53;5109208;27;20126;-70
2022/07/11 08:48:51;;;;;;;3.53;1.60;;;;;;;19.33;75.01;102343.28;5120397;27;20074;-71
2022/07/11 08:51:20;;;;;;;4.55;1.83;;;;;;;19.31;75.00;102345.16;5112926;27;20101;-70
2022/07/11 08:53:47;;;;;;;3.90;1.90;;;;;;;19.30;75.39;102343.41;5118445;27;20548;-71
2022/07/11 08:56:17;;;;;;;2.92;1.55;;;;;;;19.34;74.92;102347.69;5133236;27;20575;-72
2022/07/11 08:58:47;;;;;;;3.78;1.90;;;;;;;19.37;74.13;102340.41;5122252;27;20461;-71
2022/07/11 09:01:33;;;;;;;2.95;2.10;;;;;;;19.43;74.36;102338.41;5113081;27;20044;-70
2022/07/11 09:04:01;;;;;;;5.85;1.80;;;;;;;19.57;74.15;102344.00;5110700;27;20044;-70
2022/07/11 09:06:29;;;;;;;11.95;2.72;;;;;;;19.71;73.92;102340.69;5112515;27;20530;-71
2022/07/11 09:09:00;;;;;;;5.72;1.88;;;;;;;19.74;73.48;102332.53;5120098;27;20494;-70
2022/07/11 09:11:49;;;;;;;2.85;1.70;;;;;;;19.78;73.36;102328.81;5121510;27;20217;-71
2022/07/11 09:14:29;;;;;;;3.30;1.73;;;;;;;19.88;73.83;102333.75;5107010;27;20126;-71
2022/07/11 09:17:14;;;;;;;2.70;1.50;;;;;;;19.97;72.99;102336.84;5118323;27;20063;-70
2022/07/11 09:19:41;;;;;;;12.30;2.67;;;;;;;20.00;72.94;102335.84;5123230;27;20044;-71
2022/07/11 09:27:54;;;;;;;29.33;3.30;;;;;;;20.13;72.03;102341.50;5123120;27;20042;-70
2022/07/11 09:30:25;;;;;;;11.27;2.25;;;;;;;20.19;71.95;102343.88;5115315;27;20093;-71
2022/07/11 09:33:12;;;;;;;4.40;1.83;;;;;;;20.25;71.67;102332.88;5123726;27;20041;-69
2022/07/11 09:35:45;;;;;;;4.22;2.00;;;;;;;20.40;71.22;102331.28;5114871;27;20631;-70
2022/07/11 09:38:17;;;;;;;10.27;2.00;;;;;;;20.61;70.01;102328.47;5116081;27;20098;-69
2022/07/11 09:40:47;;;;;;;6.97;1.90;;;;;;;20.83;70.92;102324.78;5106536;27;20036;-70
2022/07/11 09:43:24;;;;;;;5.80;1.88;;;;;;;21.01;70.30;102323.81;5109576;27;20562;-69
2022/07/11 09:45:52;;;;;;;5.40;1.67;;;;;;;21.20;69.88;102331.81;5108864;27;20044;-70
2022/07/11 09:48:19;;;;;;;10.70;1.92;;;;;;;21.33;69.32;102329.34;5113526;27;20057;-71
2022/07/11 09:51:04;;;;;;;9.02;2.38;;;;;;;21.48;67.33;102322.28;5116477;27;20051;-70
2022/07/11 09:53:31;;;;;;;15.32;2.47;;;;;;;21.40;67.43;102322.72;5115893;27;20613;-70
2022/07/11 09:56:00;;;;;;;15.18;2.50;;;;;;;21.33;66.63;102328.47;5117285;27;20043;-70
2022/07/11 09:58:29;;;;;;;3.00;1.75;;;;;;;21.16;67.16;102326.69;5113595;27;20181;-69
2022/07/11 10:00:56;;;;;;;7.57;2.10;;;;;;;21.02;67.35;102330.94;5126370;27;20089;-69
2022/07/11 10:03:25;;;;;;;7.45;2.33;;;;;;;20.89;68.17;102337.88;5120483;27;20083;-69
2022/07/11 10:06:12;;;;;;;15.63;2.75;;;;;;;20.68;68.05;102335.28;5109000;27;20036;-69
2022/07/11 10:08:39;;;;;;;20.85;2.67;;;;;;;20.52;68.32;102335.19;5118916;27;20089;-69
2022/07/11 10:11:08;;;;;;;9.40;1.90;;;;;;;20.38;68.69;102333.19;5132555;27;20051;-70
2022/07/11 10:13:36;;;;;;;9.05;2.22;;;;;;;20.25;68.85;102340.91;5114391;27;20119;-69
2022/07/11 10:16:31;;;;;;;7.28;1.63;;;;;;;20.20;68.31;102339.38;5115858;27;20048;-69
2022/07/11 10:19:28;;;;;;;7.28;1.77;;;;;;;20.11;68.95;102340.72;5115657;27;20060;-70
2022/07/11 10:22:14;;;;;;;3.58;1.50;;;;;;;20.08;69.05;102343.53;5112927;27;20771;-70
2022/07/11 10:24:53;;;;;;;3.08;1.65;;;;;;;20.04;68.48;102336.59;5119475;27;20075;-70
2022/07/11 10:27:48;;;;;;;3.55;2.08;;;;;;;19.96;69.06;102332.44;5122571;27;20048;-71
2022/07/11 10:30:57;;;;;;;21.67;3.95;;;;;;;19.94;69.39;102339.66;5118212;27;20112;-70
2022/07/11 10:33:24;;;;;;;10.50;2.70;;;;;;;19.94;68.92;102337.00;5122677;27;20047;-71
2022/07/11 10:35:53;;;;;;;2.63;1.67;;;;;;;19.93;68.76;102345.09;5124533;27;20071;-70
2022/07/11 10:38:21;;;;;;;7.40;1.92;;;;;;;19.92;67.65;102346.03;5111615;28;20215;-70
2022/07/11 10:40:57;;;;;;;8.88;2.03;;;;;;;19.86;68.54;102348.06;5120287;27;20047;-70
2022/07/11 10:43:48;;;;;;;3.38;2.10;;;;;;;19.88;68.45;102342.63;5111878;27;20189;-70
2022/07/11 10:46:19;;;;;;;7.72;1.85;;;;;;;19.93;68.07;102350.47;5121906;27;20047;-70
2022/07/11 10:49:15;;;;;;;5.72;1.77;;;;;;;20.00;68.13;102354.56;5126319;27;20040;-70
2022/07/11 10:52:02;;;;;;;3.47;1.58;;;;;;;20.02;68.08;102350.91;5109104;27;20447;-71
2022/07/11 10:55:17;;;;;;;2.22;1.50;;;;;;;20.10;68.43;102352.34;5116871;27;20078;-71
2022/07/11 10:58:11;;;;;;;3.75;1.90;;;;;;;20.25;67.42;102351.63;5113830;27;20052;-70
2022/07/11 11:00:38;;;;;;;3.10;2.03;;;;;;;20.31;67.73;102359.38;5111370;27;20049;-71
2022/07/11 11:03:10;;;;;;;6.97;2.10;;;;;;;20.51;67.70;102353.97;5114767;27;20032;-71
2022/07/11 11:05:49;;;;;;;7.93;2.25;;;;;;;20.70;67.52;102352.16;5126524;27;20044;-72
2022/07/11 11:08:35;;;;;;;5.40;2.00;;;;;;;20.97;66.87;102346.41;5124838;27;20139;-71
2022/07/11 11:11:04;;;;;;;5.80;2.13;;;;;;;21.20;65.78;102347.03;5115330;27;20176;-70
2022/07/11 11:13:35;;;;;;;6.35;2.33;;;;;;;21.38;64.81;102346.06;5101760;28;20105;-70
2022/07/11 11:16:22;;;;;;;6.05;1.95;;;;;;;21.51;64.28;102353.47;5112158;27;20101;-71
2022/07/11 11:18:51;;;;;;;5.45;2.20;;;;;;;21.55;63.79;102349.66;5113031;28;20117;-71
2022/07/11 11:21:20;;;;;;;3.25;2.03;;;;;;;21.58;63.81;102346.81;5112518;27;20050;-70
2022/07/11 11:23:59;;;;;;;2.95;1.92;;;;;;;21.60;63.72;102349.44;5113940;27;20067;-70
2022/07/11 11:26:48;;;;;;;5.97;2.00;;;;;;;21.68;63.59;102353.47;5115269;27;20040;-70
2022/07/11 11:29:25;;;;;;;10.68;2.50;;;;;;;21.78;63.50;102347.59;5125130;27;20801;-70
2022/07/11 11:31:57;;;;;;;8.57;1.95;;;;;;;21.85;63.19;102347.19;5119577;27;20051;-70
2022/07/11 11:34:25;;;;;;;14.25;2.40;;;;;;;21.98;63.34;102349.19;5114266;27;20499;-70
2022/07/11 11:36:59;;;;;;;8.98;2.20;;;;;;;22.10;62.87;102347.66;5113267;27;20039;-70
2022/07/11 11:39:34;;;;;;;5.82;1.48;;;;;;;22.14;62.81;102344.72;5117886;27;20058;-71
2022/07/11 11:42:12;;;;;;;12.18;2.40;;;;;;;22.26;62.31;102347.66;5133593;27;20062;-70
2022/07/11 11:45:03;;;;;;;13.00;2.55;;;;;;;22.34;62.27;102338.22;5123141;27;20044;-69
2022/07/11 11:47:31;;;;;;;2.45;1.60;;;;;;;22.41;61.84;102335.22;5114261;27;20044;-69